Time;durP1;ratioP1;P1;durP2;ratioP2;P2;SDS_P1;SDS_P2;PMS_P1;PMS_P2;Temp;Humidity;BMP_temperature;BMP_pressure;BME280_temperature;BME280_humidity;BME280_pressure;Samples;Min_cycle;Max_cycle;Signal;HPM_P1;HPM_P2
2021/07/13 00:00:00;;;;;;;15.27;13.23;;;19.60;99.90;;;;;;4008210;29;20720;-88
2021/07/13 00:02:01;;;;;;;19.77;13.52;;;19.50;99.90;;;;;;4007351;29;20183;-87
2021/07/13 00:04:02;;;;;;;18.58;13.65;;;19.50;99.90;;;;;;4022386;29;20201;-87
2021/07/13 00:06:03;;;;;;;19.40;14.73;;;19.50;99.90;;;;;;4007385;29;20600;-87
2021/07/13 00:08:05;;;;;;;17.88;14.15;;;19.40;99.90;;;;;;4022681;29;20182;-87
2021/07/13 00:10:08;;;;;;;19.35;13.68;;;19.30;99.90;;;;;;4022587;29;20559;-87
2021/07/13 00:12:10;;;;;;;17.38;13.25;;;19.10;99.90;;;;;;4022434;29;20719;-86
2021/07/13 00:14:11;;;;;;;18.15;13.35;;;19.10;99.90;;;;;;4022989;29;20194;-87
2021/07/13 00:16:12;;;;;;;16.65;13.38;;;19.00;99.90;;;;;;4023398;29;20655;-87
2021/07/13 00:18:13;;;;;;;17.25;13.93;;;18.90;99.90;;;;;;4022875;29;20181;-87
2021/07/13 00:20:14;;;;;;;18.77;14.43;;;19.00;99.90;;;;;;4023783;29;20718;-88
2021/07/13 00:22:15;;;;;;;21.17;13.38;;;19.20;99.90;;;;;;4007421;29;20175;-87
2021/07/13 00:24:16;;;;;;;18.58;14.15;;;19.30;99.90;;;;;;4022951;29;20591;-87
2021/07/13 00:26:16;;;;;;;18.83;12.98;;;19.40;99.90;;;;;;4007066;29;20193;-87
2021/07/13 00:28:17;;;;;;;15.80;13.70;;;19.50;99.90;;;;;;4023825;29;20209;-87
2021/07/13 00:30:19;;;;;;;20.58;12.13;;;19.40;99.90;;;;;;4008424;29;20532;-87
2021/07/13 00:32:20;;;;;;;15.07;12.65;;;19.50;99.90;;;;;;4023777;29;20215;-87
2021/07/13 00:34:21;;;;;;;17.25;12.20;;;19.50;99.90;;;;;;4007188;29;20195;-88
2021/07/13 00:36:21;;;;;;;19.27;13.43;;;19.50;99.90;;;;;;4022920;29;20698;-87
2021/07/13 00:38:22;;;;;;;16.17;12.73;;;19.50;99.90;;;;;;4008997;29;20178;-87
2021/07/13 00:40:23;;;;;;;19.63;13.23;;;19.50;99.90;;;;;;4009249;29;20242;-86
2021/07/13 00:42:24;;;;;;;15.30;12.43;;;19.50;99.90;;;;;;4007083;29;20183;-87
2021/07/13 00:44:24;;;;;;;16.58;12.40;;;19.40;99.90;;;;;;4007042;29;20313;-94
2021/07/13 00:46:25;;;;;;;22.58;12.40;;;19.30;99.90;;;;;;4007820;29;20204;-86
2021/07/13 00:48:26;;;;;;;19.88;13.00;;;19.20;99.90;;;;;;4006937;29;20278;-87
2021/07/13 00:50:27;;;;;;;19.80;12.73;;;19.10;99.90;;;;;;4022603;29;20608;-87
2021/07/13 00:52:28;;;;;;;17.05;12.68;;;19.10;99.90;;;;;;4022248;29;20227;-87
2021/07/13 00:54:31;;;;;;;16.25;12.77;;;19.10;99.90;;;;;;4021691;29;20198;-87
2021/07/13 00:56:33;;;;;;;17.85;12.85;;;19.30;99.90;;;;;;4021995;29;20204;-87
2021/07/13 00:58:34;;;;;;;19.77;14.52;;;19.40;99.90;;;;;;4006897;29;20266;-88
2021/07/13 01:00:34;;;;;;;20.60;14.82;;;19.00;99.90;;;;;;4021926;29;20217;-87
2021/07/13 01:02:35;;;;;;;23.65;16.02;;;18.70;99.90;;;;;;4006861;29;20178;-87
2021/07/13 01:04:44;;;;;;;21.77;14.95;;;18.70;99.90;;;;;;4006520;29;20206;-86
2021/07/13 01:07:02;;;;;;;21.83;15.05;;;19.30;99.90;;;;;;4006259;29;20222;-87
2021/07/13 01:09:09;;;;;;;25.92;15.85;;;19.50;99.90;;;;;;4007752;29;20229;-87
2021/07/13 01:11:12;;;;;;;21.88;16.45;;;19.40;99.90;;;;;;4021961;29;20584;-87
2021/07/13 01:13:50;;;;;;;22.65;16.00;;;19.40;99.90;;;;;;4037361;29;20245;-87
2021/07/13 01:15:58;;;;;;;23.30;16.42;;;19.40;99.90;;;;;;4022352;29;20220;-87
2021/07/13 01:18:04;;;;;;;87.45;16.02;;;19.40;99.90;;;;;;4022623;29;20528;-88
2021/07/13 01:20:29;;;;;;;22.17;15.07;;;19.50;99.90;;;;;;4021774;29;20186;-88
2021/07/13 01:22:45;;;;;;;24.20;15.10;;;19.70;99.90;;;;;;4022000;29;20178;-87
2021/07/13 01:24:54;;;;;;;20.48;14.90;;;19.30;99.90;;;;;;4023049;29;20174;-88
2021/07/13 01:27:09;;;;;;;23.17;16.10;;;18.90;99.90;;;;;;4006923;29;20190;-88
2021/07/13 01:29:12;;;;;;;29.02;19.02;;;18.80;99.90;;;;;;4022000;29;20663;-87
2021/07/13 01:31:17;;;;;;;24.30;19.20;;;18.90;99.90;;;;;;4022503;29;20170;-87
2021/07/13 01:33:21;;;;;;;29.98;20.92;;;18.90;99.90;;;;;;4022673;29;20218;-87
2021/07/13 01:35:44;;;;;;;34.17;22.02;;;18.80;99.90;;;;;;4006517;29;20175;-87
2021/07/13 01:37:50;;;;;;;26.98;20.45;;;18.90;99.90;;;;;;4021361;29;20198;-87
2021/07/13 01:39:54;;;;;;;24.70;20.08;;;19.00;99.90;;;;;;4022365;29;20178;-87
2021/07/13 01:42:01;;;;;;;24.50;19.50;;;19.00;99.90;;;;;;4023933;29;20197;-87
2021/07/13 01:44:02;;;;;;;24.67;18.77;;;19.00;99.90;;;;;;4022937;29;20187;-87
2021/07/13 01:46:04;;;;;;;27.70;19.08;;;18.90;99.90;;;;;;4021870;29;20261;-87
2021/07/13 01:48:09;;;;;;;22.92;18.10;;;18.90;99.90;;;;;;4006439;29;20258;-87
2021/07/13 01:50:12;;;;;;;21.17;17.40;;;18.90;99.90;;;;;;4006343;29;20288;-87
2021/07/13 01:52:14;;;;;;;28.48;20.50;;;18.70;99.90;;;;;;4006467;29;20708;-87
2021/07/13 01:54:17;;;;;;;29.42;22.25;;;18.70;99.90;;;;;;4006215;29;20203;-87
2021/07/13 01:56:19;;;;;;;29.27;21.55;;;18.70;99.90;;;;;;4006582;29;20652;-87
2021/07/13 01:58:24;;;;;;;33.90;23.85;;;18.60;99.90;;;;;;4006538;29;20207;-87
2021/07/13 02:00:25;;;;;;;35.95;24.05;;;18.60;99.90;;;;;;4006216;29;20214;-87
2021/07/13 02:02:29;;;;;;;28.98;22.83;;;18.50;99.90;;;;;;4021410;29;20720;-87
2021/07/13 02:04:32;;;;;;;34.92;23.83;;;18.60;99.90;;;;;;4021472;29;20200;-87
2021/07/13 02:06:35;;;;;;;32.33;23.60;;;18.70;99.90;;;;;;4007600;29;20191;-87
2021/07/13 02:08:39;;;;;;;30.35;23.40;;;18.70;99.90;;;;;;4009413;29;20182;-87
2021/07/13 02:10:40;;;;;;;38.50;23.38;;;18.60;99.90;;;;;;4008898;29;20187;-88
2021/07/13 02:12:41;;;;;;;32.30;24.67;;;18.60;99.90;;;;;;4009297;29;20618;-88
2021/07/13 02:14:42;;;;;;;33.35;22.73;;;18.70;99.90;;;;;;4024240;29;20214;-88
2021/07/13 02:16:43;;;;;;;27.58;21.92;;;18.60;99.90;;;;;;4008967;29;20204;-88
2021/07/13 02:18:44;;;;;;;30.90;22.05;;;18.60;99.90;;;;;;4009347;29;20210;-88
2021/07/13 02:20:44;;;;;;;28.00;22.42;;;18.70;99.90;;;;;;4024588;29;20198;-92
2021/07/13 02:22:45;;;;;;;28.98;21.65;;;18.70;99.90;;;;;;4009171;29;20323;-88
2021/07/13 02:24:46;;;;;;;23.42;17.42;;;18.80;99.90;;;;;;4024291;29;20174;-87
2021/07/13 02:26:51;;;;;;;22.10;15.75;;;18.80;99.90;;;;;;4024309;29;20281;-87
2021/07/13 02:28:59;;;;;;;25.30;16.83;;;18.70;99.90;;;;;;4024041;29;20174;-87
2021/07/13 02:31:11;;;;;;;21.85;15.50;;;18.70;99.90;;;;;;4023869;29;20182;-87
2021/07/13 02:33:17;;;;;;;22.90;16.85;;;18.60;99.90;;;;;;4024497;29;20193;-88
2021/07/13 02:35:23;;;;;;;26.02;17.10;;;18.60;99.90;;;;;;4024002;29;20185;-88
2021/07/13 02:37:25;;;;;;;31.25;20.25;;;18.50;99.90;;;;;;4023982;29;20186;-87
2021/07/13 02:39:26;;;;;;;30.15;21.85;;;18.40;99.90;;;;;;4008639;29;20664;-87
2021/07/13 02:41:28;;;;;;;27.30;21.42;;;18.40;99.90;;;;;;4023922;29;20221;-88
2021/07/13 02:43:29;;;;;;;42.47;28.40;;;18.40;99.90;;;;;;4023878;29;20556;-93
2021/07/13 02:45:31;;;;;;;41.10;28.35;;;18.50;99.90;;;;;;4008619;29;20175;-87
2021/07/13 02:47:32;;;;;;;41.35;30.10;;;18.40;99.90;;;;;;4008623;29;20178;-87
2021/07/13 02:49:43;;;;;;;51.28;32.70;;;18.20;99.90;;;;;;4008230;29;20175;-87
2021/07/13 02:51:46;;;;;;;45.60;33.03;;;18.30;99.90;;;;;;4008350;29;20187;-87
2021/07/13 02:53:48;;;;;;;52.20;35.33;;;18.30;99.90;;;;;;4023787;29;20756;-87
2021/07/13 02:55:50;;;;;;;51.42;33.85;;;18.40;99.90;;;;;;4008585;29;20190;-88
2021/07/13 02:57:53;;;;;;;56.60;35.75;;;18.40;99.90;;;;;;4023761;29;20198;-87
2021/07/13 02:59:55;;;;;;;54.83;36.15;;;18.40;99.90;;;;;;4023687;29;20194;-87
2021/07/13 03:01:57;;;;;;;55.50;36.60;;;18.60;99.90;;;;;;4023412;29;20296;-88
2021/07/13 03:04:00;;;;;;;47.78;34.60;;;18.40;99.90;;;;;;4008263;29;20199;-87
2021/07/13 03:06:02;;;;;;;58.65;38.08;;;18.30;99.90;;;;;;4023795;29;20756;-88
2021/07/13 03:08:04;;;;;;;55.70;37.88;;;18.30;99.90;;;;;;4008451;29;20640;-87
2021/07/13 03:10:05;;;;;;;59.72;36.65;;;18.20;99.90;;;;;;4008051;29;20660;-87
2021/07/13 03:12:09;;;;;;;61.55;39.03;;;18.10;99.90;;;;;;4008446;29;20182;-87
2021/07/13 03:14:17;;;;;;;69.28;38.88;;;18.10;99.90;;;;;;4023964;29;20194;-87
2021/07/13 03:16:17;;;;;;;66.88;41.53;;;18.10;99.90;;;;;;4008565;29;20206;-87
2021/07/13 03:18:18;;;;;;;68.57;43.03;;;18.20;99.90;;;;;;4007595;29;20186;-87
2021/07/13 03:20:21;;;;;;;66.55;41.17;;;18.20;99.90;;;;;;4007892;29;20731;-87
2021/07/13 03:22:27;;;;;;;66.57;43.90;;;18.30;99.90;;;;;;4023392;29;20178;-87
2021/07/13 03:24:29;;;;;;;75.75;46.78;;;18.10;99.90;;;;;;4008114;29;20210;-87
2021/07/13 03:26:41;;;;;;;78.05;46.63;;;18.10;99.90;;;;;;4008094;29;20194;-87
2021/07/13 03:28:43;;;;;;;77.05;47.13;;;18.00;99.90;;;;;;4023818;29;20178;-87
2021/07/13 03:30:46;;;;;;;82.53;47.92;;;18.10;99.90;;;;;;4023534;29;20182;-88
2021/07/13 03:32:49;;;;;;;83.55;47.95;;;18.20;99.90;;;;;;4007978;29;20178;-87
2021/07/13 03:34:51;;;;;;;86.95;50.40;;;18.30;99.90;;;;;;4023143;29;20239;-87
2021/07/13 03:36:52;;;;;;;84.35;48.83;;;18.30;99.90;;;;;;4007748;29;20182;-87
2021/07/13 03:38:53;;;;;;;52.13;34.60;;;18.30;99.90;;;;;;4023120;29;20182;-88
2021/07/13 03:40:54;;;;;;;64.93;42.78;;;18.10;99.90;;;;;;4007550;29;20356;-87
2021/07/13 03:42:56;;;;;;;58.35;39.75;;;18.20;99.90;;;;;;4022874;29;20715;-87
2021/07/13 03:44:57;;;;;;;53.90;38.80;;;18.10;99.90;;;;;;4023012;29;20190;-88
2021/07/13 03:46:58;;;;;;;65.97;42.28;;;18.20;99.90;;;;;;4007792;29;20179;-88
2021/07/13 03:48:59;;;;;;;57.65;40.17;;;18.20;99.90;;;;;;4007590;29;20226;-87
2021/07/13 03:51:00;;;;;;;74.75;42.72;;;18.30;99.90;;;;;;4007959;29;20179;-87
2021/07/13 03:53:02;;;;;;;66.57;43.72;;;18.30;99.90;;;;;;4022790;29;20190;-88
2021/07/13 03:55:03;;;;;;;77.65;41.90;;;18.40;99.90;;;;;;4007823;29;20208;-87
2021/07/13 03:57:05;;;;;;;115.45;48.63;;;18.50;99.90;;;;;;4007476;29;20183;-87
2021/07/13 03:59:06;;;;;;;100.35;48.38;;;18.50;99.90;;;;;;4007384;29;20183;-87
2021/07/13 04:01:07;;;;;;;126.47;49.85;;;18.50;99.90;;;;;;4007414;29;20698;-87
2021/07/13 04:03:07;;;;;;;135.90;49.88;;;18.50;99.90;;;;;;4022859;29;20190;-87
2021/07/13 04:05:12;;;;;;;257.67;52.55;;;18.60;99.90;;;;;;4022795;29;20240;-87
2021/07/13 04:07:13;;;;;;;175.43;51.10;;;18.80;99.90;;;;;;4022945;29;20171;-87
2021/07/13 04:09:13;;;;;;;238.27;50.60;;;18.80;99.90;;;;;;4007471;29;20186;-87
2021/07/13 04:11:14;;;;;;;331.38;53.75;;;18.60;99.90;;;;;;4007274;29;20243;-87
2021/07/13 04:13:15;;;;;;;234.02;52.85;;;18.50;99.90;;;;;;4022572;29;20337;-87
2021/07/13 04:15:15;;;;;;;192.73;51.45;;;18.40;99.90;;;;;;4007424;29;20683;-87
2021/07/13 04:17:16;;;;;;;165.15;49.78;;;18.40;99.90;;;;;;4007652;29;20247;-87
2021/07/13 04:19:17;;;;;;;107.95;48.88;;;18.30;99.90;;;;;;4007281;29;20171;-87
2021/07/13 04:21:17;;;;;;;302.60;51.08;;;18.30;99.90;;;;;;4007315;29;20264;-87
2021/07/13 04:23:18;;;;;;;146.85;46.97;;;18.20;99.90;;;;;;4007139;29;20191;-88
2021/07/13 04:25:19;;;;;;;311.42;52.72;;;18.30;99.90;;;;;;4022330;29;20186;-87
2021/07/13 04:27:19;;;;;;;236.40;55.60;;;18.50;99.90;;;;;;4007021;29;20529;-87
2021/07/13 04:29:20;;;;;;;306.17;55.15;;;18.60;99.90;;;;;;4022643;29;20178;-87
2021/07/13 04:31:21;;;;;;;168.68;50.20;;;18.60;99.90;;;;;;4022384;29;20201;-87
2021/07/13 04:33:21;;;;;;;344.70;56.85;;;18.60;99.90;;;;;;4023415;29;20198;-87
2021/07/13 04:35:22;;;;;;;206.52;54.65;;;18.70;99.90;;;;;;4022130;29;20207;-87
2021/07/13 04:37:24;;;;;;;244.13;54.40;;;18.80;99.90;;;;;;4007015;29;20183;-87
2021/07/13 04:39:25;;;;;;;368.58;59.17;;;18.90;99.90;;;;;;4007078;29;20175;-87
2021/07/13 04:41:26;;;;;;;388.08;57.95;;;19.00;99.90;;;;;;4022164;29;20217;-88
2021/07/13 04:43:26;;;;;;;386.85;62.03;;;19.00;99.90;;;;;;4007335;29;20223;-87
2021/07/13 04:45:27;;;;;;;496.52;61.92;;;19.00;99.90;;;;;;4007232;29;20293;-87
2021/07/13 04:47:28;;;;;;;440.40;67.47;;;19.10;99.90;;;;;;4006971;29;20181;-87
2021/07/13 04:49:31;;;;;;;365.20;66.03;;;19.20;99.90;;;;;;4006562;29;20179;-87
2021/07/13 04:51:32;;;;;;;193.07;58.55;;;19.10;99.90;;;;;;4007252;29;20174;-87
2021/07/13 04:53:34;;;;;;;442.33;63.67;;;19.10;99.90;;;;;;4022038;29;20238;-87
2021/07/13 04:55:34;;;;;;;340.50;62.85;;;19.10;99.90;;;;;;4022514;29;20537;-88
2021/07/13 04:57:35;;;;;;;426.30;67.60;;;19.00;99.90;;;;;;4022183;29;20193;-87
2021/07/13 04:59:36;;;;;;;312.85;67.72;;;19.00;99.90;;;;;;4006958;29;20259;-87
2021/07/13 05:01:38;;;;;;;418.10;71.80;;;19.10;99.90;;;;;;4006535;29;20218;-87
2021/07/13 05:03:38;;;;;;;251.48;64.35;;;19.00;99.90;;;;;;4022080;29;20285;-87
2021/07/13 05:05:39;;;;;;;191.15;65.53;;;18.90;99.90;;;;;;4022118;29;20543;-87
2021/07/13 05:07:44;;;;;;;246.95;65.97;;;18.90;99.90;;;;;;4006511;29;20296;-87
2021/07/13 05:09:45;;;;;;;252.48;68.38;;;19.10;99.90;;;;;;4006619;29;20181;-88
2021/07/13 05:11:45;;;;;;;286.05;70.18;;;19.00;99.90;;;;;;4021788;29;20178;-88
2021/07/13 05:13:46;;;;;;;158.45;66.65;;;19.10;99.90;;;;;;4006582;29;20199;-87
2021/07/13 05:15:47;;;;;;;186.75;67.07;;;19.00;99.90;;;;;;4021899;29;20205;-87
2021/07/13 05:17:48;;;;;;;220.05;66.00;;;18.90;99.90;;;;;;4006872;29;20224;-87
2021/07/13 05:19:50;;;;;;;196.82;65.50;;;18.70;99.90;;;;;;4006248;29;20174;-86
2021/07/13 05:22:00;;;;;;;225.35;68.22;;;18.60;99.90;;;;;;4006885;29;20223;-86
2021/07/13 05:24:01;;;;;;;330.00;70.90;;;18.80;99.90;;;;;;4006553;29;20195;-87
2021/07/13 05:26:02;;;;;;;186.55;70.18;;;18.90;99.90;;;;;;4006564;29;20221;-87
2021/07/13 05:28:10;;;;;;;260.38;74.10;;;18.90;99.90;;;;;;4006588;29;20183;-86
2021/07/13 05:30:11;;;;;;;235.25;74.13;;;18.80;99.90;;;;;;4021732;29;20181;-87
2021/07/13 05:32:12;;;;;;;271.17;73.55;;;18.90;99.90;;;;;;4006630;29;20175;-92
2021/07/13 05:34:13;;;;;;;208.85;72.00;;;18.70;99.90;;;;;;4021761;29;20205;-87
2021/07/13 05:36:14;;;;;;;206.15;72.20;;;18.60;99.90;;;;;;4006772;29;20212;-87
2021/07/13 05:38:14;;;;;;;217.27;73.20;;;18.60;99.90;;;;;;4021744;29;20621;-87
2021/07/13 05:40:15;;;;;;;213.68;73.18;;;18.60;99.90;;;;;;4006487;29;20242;-86
2021/07/13 05:42:16;;;;;;;226.68;73.25;;;18.70;99.90;;;;;;4009111;29;20187;-86
2021/07/13 05:44:17;;;;;;;192.35;68.85;;;18.70;99.90;;;;;;4024728;29;20221;-88
2021/07/13 05:46:18;;;;;;;196.23;70.78;;;18.90;99.90;;;;;;4024871;29;20229;-87
2021/07/13 05:48:18;;;;;;;227.20;70.05;;;18.90;99.90;;;;;;4009494;29;20199;-88
2021/07/13 05:50:19;;;;;;;217.02;70.03;;;18.90;99.90;;;;;;4009357;29;20183;-87
2021/07/13 05:52:20;;;;;;;199.13;70.45;;;18.90;99.90;;;;;;4009624;29;20223;-86
2021/07/13 05:54:21;;;;;;;183.10;66.88;;;18.90;99.90;;;;;;4009438;29;20324;-87
2021/07/13 05:56:21;;;;;;;200.48;69.15;;;18.90;99.90;;;;;;4009452;29;20179;-87
2021/07/13 05:58:22;;;;;;;192.63;71.53;;;18.70;99.90;;;;;;4009225;29;20230;-87
2021/07/13 06:00:23;;;;;;;182.75;67.82;;;18.80;99.90;;;;;;4009413;29;20210;-86
2021/07/13 06:02:24;;;;;;;186.63;66.68;;;19.00;99.90;;;;;;4009130;29;20700;-87
2021/07/13 06:04:24;;;;;;;191.07;65.22;;;19.10;99.90;;;;;;4024441;29;20197;-87
2021/07/13 06:06:27;;;;;;;185.70;66.15;;;18.90;99.90;;;;;;4024575;29;20197;-88
2021/07/13 06:08:27;;;;;;;183.82;65.25;;;18.80;99.90;;;;;;4009185;29;20179;-87
2021/07/13 06:10:28;;;;;;;207.40;68.03;;;18.80;99.90;;;;;;4024135;29;20658;-93
2021/07/13 06:12:29;;;;;;;184.57;66.57;;;18.80;99.90;;;;;;4009289;29;20181;-87
2021/07/13 06:14:29;;;;;;;194.77;70.30;;;18.60;99.90;;;;;;4024425;29;20218;-88
2021/07/13 06:16:30;;;;;;;189.75;69.68;;;18.70;99.90;;;;;;4024450;29;20178;-87
2021/07/13 06:18:31;;;;;;;194.82;68.22;;;18.90;99.90;;;;;;4009020;29;20593;-88
2021/07/13 06:20:33;;;;;;;198.77;68.25;;;19.10;99.90;;;;;;4009165;29;20209;-87
2021/07/13 06:22:34;;;;;;;212.30;73.10;;;19.20;99.90;;;;;;4024350;29;20185;-91
2021/07/13 06:24:35;;;;;;;233.88;76.97;;;19.40;99.90;;;;;;4008762;29;20194;-87
2021/07/13 06:26:36;;;;;;;235.73;79.68;;;19.60;99.90;;;;;;4024103;29;20281;-87
2021/07/13 06:28:36;;;;;;;231.88;80.03;;;19.60;99.90;;;;;;4008781;29;20625;-87
2021/07/13 06:30:39;;;;;;;225.13;78.90;;;19.70;99.90;;;;;;4039669;29;20184;-87
2021/07/13 06:32:40;;;;;;;215.70;77.68;;;19.80;99.90;;;;;;4024208;29;20166;-87
2021/07/13 06:34:40;;;;;;;226.20;79.55;;;19.80;99.90;;;;;;4024245;29;20259;-87
2021/07/13 06:36:41;;;;;;;203.57;75.78;;;19.80;99.90;;;;;;4024334;29;20234;-87
2021/07/13 06:38:42;;;;;;;206.48;76.57;;;19.70;99.90;;;;;;4008707;29;20183;-86
2021/07/13 06:40:42;;;;;;;217.00;75.63;;;19.90;99.90;;;;;;4024269;29;20743;-86
2021/07/13 06:42:43;;;;;;;206.25;76.25;;;19.90;99.90;;;;;;4008592;29;20195;-87
2021/07/13 06:44:44;;;;;;;205.15;75.55;;;20.10;99.90;;;;;;4024061;29;20170;-86
2021/07/13 06:46:45;;;;;;;205.27;75.97;;;20.20;99.90;;;;;;4008580;29;20183;-87
2021/07/13 06:48:45;;;;;;;194.55;74.88;;;20.10;99.90;;;;;;4023893;29;20536;-87
2021/07/13 06:50:46;;;;;;;180.52;72.57;;;19.90;99.90;;;;;;4023965;29;20214;-93
2021/07/13 06:52:47;;;;;;;176.95;69.55;;;20.00;99.90;;;;;;4022630;29;20217;-86
2021/07/13 06:54:47;;;;;;;171.05;72.00;;;20.10;99.90;;;;;;4023691;29;20214;-87
2021/07/13 06:56:48;;;;;;;169.48;69.53;;;20.10;99.90;;;;;;4008300;29;20601;-87
2021/07/13 06:58:49;;;;;;;165.25;70.47;;;20.20;99.90;;;;;;4008453;29;20179;-88
2021/07/13 07:00:50;;;;;;;161.90;70.50;;;20.10;99.90;;;;;;4008241;29;20214;-86
2021/07/13 07:02:51;;;;;;;156.68;70.00;;;19.90;99.90;;;;;;4023273;29;20186;-90
2021/07/13 07:04:51;;;;;;;160.85;68.53;;;20.20;99.90;;;;;;4023401;29;20178;-87
2021/07/13 07:06:52;;;;;;;148.07;67.85;;;20.70;99.90;;;;;;4007974;29;20179;-87
2021/07/13 07:08:53;;;;;;;151.50;67.05;;;20.50;99.90;;;;;;4023593;29;20265;-87
2021/07/13 07:10:54;;;;;;;145.45;66.63;;;20.20;99.90;;;;;;4008312;29;20179;-87
2021/07/13 07:12:54;;;;;;;148.18;66.97;;;20.20;99.90;;;;;;4008715;29;20656;-93
2021/07/13 07:14:55;;;;;;;150.13;67.22;;;20.60;99.90;;;;;;4023266;29;20178;-87
2021/07/13 07:16:56;;;;;;;137.35;66.65;;;21.10;99.90;;;;;;4022953;29;20179;-87
2021/07/13 07:18:56;;;;;;;139.77;67.38;;;21.10;99.90;;;;;;4023310;29;20250;-87
2021/07/13 07:20:57;;;;;;;161.80;69.65;;;20.90;99.90;;;;;;4023524;29;20202;-88
2021/07/13 07:22:59;;;;;;;155.30;69.38;;;21.40;99.90;;;;;;4023662;29;20218;-87
2021/07/13 07:24:59;;;;;;;157.55;71.18;;;21.40;99.90;;;;;;4008391;29;20179;-91
2021/07/13 07:27:00;;;;;;;158.20;69.95;;;21.30;99.90;;;;;;4024438;29;20190;-87
2021/07/13 07:29:01;;;;;;;164.80;73.40;;;21.00;99.90;;;;;;4023900;29;20174;-93
2021/07/13 07:31:02;;;;;;;182.52;74.28;;;20.90;99.90;;;;;;4023493;29;20182;-86
2021/07/13 07:33:03;;;;;;;188.70;75.57;;;20.90;99.90;;;;;;4008200;29;20202;-92
2021/07/13 07:35:05;;;;;;;183.52;76.18;;;20.80;99.90;;;;;;4023385;29;20202;-87
2021/07/13 07:37:05;;;;;;;195.05;77.95;;;20.60;99.90;;;;;;4008415;29;20187;-87
2021/07/13 07:39:07;;;;;;;184.32;75.88;;;20.40;99.90;;;;;;4023205;29;20547;-87
2021/07/13 07:41:08;;;;;;;192.90;78.43;;;20.40;99.90;;;;;;4023026;29;20241;-86
2021/07/13 07:43:09;;;;;;;200.68;81.53;;;20.60;99.90;;;;;;4007897;29;20202;-87
2021/07/13 07:45:10;;;;;;;218.70;83.72;;;20.60;99.90;;;;;;4008017;29;20323;-87
2021/07/13 07:47:11;;;;;;;211.02;84.10;;;20.60;99.90;;;;;;4023181;29;20546;-86
2021/07/13 07:49:11;;;;;;;214.02;83.97;;;20.60;99.90;;;;;;4023261;29;20209;-87
2021/07/13 07:51:12;;;;;;;202.13;82.78;;;20.60;99.90;;;;;;4007769;29;20183;-87
2021/07/13 07:53:13;;;;;;;197.25;81.50;;;20.60;99.90;;;;;;4022973;29;20294;-87
2021/07/13 07:55:15;;;;;;;184.52;77.95;;;20.70;99.90;;;;;;4007848;29;20222;-86
2021/07/13 07:57:16;;;;;;;193.15;77.13;;;20.30;99.90;;;;;;4022728;29;20182;-93
2021/07/13 07:59:18;;;;;;;192.45;77.85;;;20.30;99.90;;;;;;4008088;29;20190;-87
2021/07/13 08:01:19;;;;;;;188.38;76.97;;;20.60;99.90;;;;;;4007561;29;20274;-86
2021/07/13 08:03:20;;;;;;;182.10;77.30;;;20.60;99.90;;;;;;4022671;29;20591;-87
2021/07/13 08:05:24;;;;;;;190.07;79.43;;;20.20;99.90;;;;;;4007255;29;20258;-87
2021/07/13 08:07:25;;;;;;;184.10;78.63;;;20.50;99.90;;;;;;4007644;29;20183;-87
2021/07/13 08:09:26;;;;;;;192.85;78.97;;;20.70;99.90;;;;;;4023320;29;20213;-87
2021/07/13 08:11:26;;;;;;;178.70;77.07;;;20.90;99.90;;;;;;4022644;29;20249;-87
2021/07/13 08:13:27;;;;;;;182.55;78.60;;;21.00;99.90;;;;;;4007847;29;20202;-87
2021/07/13 08:15:28;;;;;;;182.65;78.43;;;21.00;99.90;;;;;;4022589;29;20660;-86
2021/07/13 08:17:29;;;;;;;185.13;76.90;;;21.20;99.90;;;;;;4022722;29;20197;-87
2021/07/13 08:19:29;;;;;;;182.68;78.35;;;21.20;99.90;;;;;;4022524;29;20225;-87
2021/07/13 08:21:30;;;;;;;186.30;77.45;;;21.00;99.90;;;;;;4007399;29;20332;-89
2021/07/13 08:23:31;;;;;;;185.50;76.93;;;21.00;99.90;;;;;;4007445;29;20208;-88
2021/07/13 08:25:32;;;;;;;176.25;77.40;;;21.00;99.90;;;;;;4023026;29;20226;-87
2021/07/13 08:27:32;;;;;;;179.25;75.90;;;21.00;99.90;;;;;;4007515;29;20644;-87
2021/07/13 08:29:34;;;;;;;182.88;76.78;;;21.10;99.90;;;;;;4007424;29;20270;-87
2021/07/13 08:31:34;;;;;;;177.13;76.68;;;21.10;99.90;;;;;;4022547;29;20185;-87
2021/07/13 08:33:35;;;;;;;165.05;73.00;;;21.10;99.90;;;;;;4022761;29;20671;-87
2021/07/13 08:35:36;;;;;;;161.52;73.72;;;21.20;99.90;;;;;;4006899;29;20211;-87
2021/07/13 08:37:37;;;;;;;155.98;73.32;;;21.30;99.90;;;;;;4022778;29;20171;-93
2021/07/13 08:39:37;;;;;;;163.25;74.40;;;21.40;99.90;;;;;;4007049;29;20610;-86
2021/07/13 08:41:38;;;;;;;149.00;70.32;;;21.30;99.90;;;;;;4022223;29;20236;-87
2021/07/13 08:43:40;;;;;;;151.95;70.10;;;21.40;99.90;;;;;;4007005;29;20309;-87
2021/07/13 08:45:42;;;;;;;151.23;69.43;;;21.30;99.90;;;;;;4007615;29;20186;-87
2021/07/13 08:47:45;;;;;;;144.65;71.25;;;21.10;99.90;;;;;;4008229;29;20171;-87
2021/07/13 08:49:48;;;;;;;158.93;73.03;;;21.40;99.90;;;;;;4007205;29;20567;-87
2021/07/13 08:51:49;;;;;;;152.95;71.50;;;21.60;99.90;;;;;;4007096;29;20187;-86
2021/07/13 08:53:50;;;;;;;152.32;69.25;;;21.70;99.90;;;;;;4022154;29;20686;-86
2021/07/13 08:55:54;;;;;;;132.27;66.85;;;21.70;99.90;;;;;;4006884;29;20182;-87
2021/07/13 08:57:55;;;;;;;131.18;63.00;;;21.80;99.90;;;;;;4006795;29;20674;-87
2021/07/13 08:59:55;;;;;;;121.78;61.58;;;22.10;99.90;;;;;;4022649;29;20182;-86
2021/07/13 09:01:57;;;;;;;126.25;62.85;;;22.30;99.90;;;;;;4006744;29;20707;-87
2021/07/13 09:04:04;;;;;;;123.50;62.05;;;22.50;99.90;;;;;;4006477;29;20198;-87
2021/07/13 09:06:07;;;;;;;124.78;63.20;;;22.80;99.90;;;;;;4037595;29;20173;-86
2021/07/13 09:08:24;;;;;;;118.07;60.63;;;22.80;99.90;;;;;;4022420;29;20209;-87
2021/07/13 09:10:25;;;;;;;113.32;62.20;;;22.90;99.90;;;;;;4006734;29;20171;-86
2021/07/13 09:12:26;;;;;;;110.25;59.65;;;22.80;99.90;;;;;;4006701;29;20178;-87
2021/07/13 09:14:30;;;;;;;109.07;58.90;;;22.50;99.90;;;;;;4006835;29;20198;-87
2021/07/13 09:16:33;;;;;;;106.28;57.75;;;22.50;99.90;;;;;;4021276;29;20182;-86
2021/07/13 09:18:36;;;;;;;99.20;58.03;;;22.30;99.90;;;;;;4006653;29;20600;-87
2021/07/13 09:20:37;;;;;;;102.05;58.72;;;22.00;99.90;;;;;;4021897;29;20285;-87
2021/07/13 09:22:51;;;;;;;104.55;58.60;;;22.10;99.90;;;;;;4022048;29;20640;-93
2021/07/13 09:24:52;;;;;;;113.70;61.00;;;22.30;99.90;;;;;;4022664;29;20192;-87
2021/07/13 09:27:04;;;;;;;111.65;60.70;;;22.40;99.90;;;;;;4006720;29;20675;-87
2021/07/13 09:29:06;;;;;;;108.05;61.80;;;22.20;99.90;;;;;;4023190;29;20188;-87
2021/07/13 09:31:08;;;;;;;113.50;60.55;;;22.10;99.90;;;;;;4007105;29;20286;-87
2021/07/13 09:33:19;;;;;;;115.97;62.47;;;21.90;99.90;;;;;;4006744;29;20695;-87
2021/07/13 09:35:20;;;;;;;118.63;64.35;;;22.00;99.90;;;;;;4022264;29;20176;-87
2021/07/13 09:37:47;;;;;;;120.85;65.70;;;22.20;99.90;;;;;;4021875;29;20605;-87
2021/07/13 09:40:08;;;;;;;114.03;62.45;;;22.60;99.90;;;;;;4006598;29;20846;-87
2021/07/13 09:42:09;;;;;;;114.68;63.58;;;22.60;99.90;;;;;;4006916;29;20255;-94
2021/07/13 09:44:11;;;;;;;119.65;68.22;;;22.60;99.90;;;;;;4006489;29;20218;-86
2021/07/13 09:46:24;;;;;;;126.80;70.72;;;22.60;99.90;;;;;;4006738;29;20203;-86
2021/07/13 09:48:24;;;;;;;130.63;71.90;;;22.70;99.90;;;;;;4006820;29;20185;-86
2021/07/13 09:50:45;;;;;;;130.75;74.03;;;22.50;99.90;;;;;;4006308;29;20214;-87
2021/07/13 09:53:06;;;;;;;141.60;76.47;;;22.20;99.90;;;;;;4021590;29;20185;-86
2021/07/13 09:55:33;;;;;;;140.23;78.95;;;22.30;99.90;;;;;;4021962;29;20182;-87
2021/07/13 09:57:38;;;;;;;146.13;78.40;;;22.40;99.90;;;;;;4020045;29;20191;-87
2021/07/13 09:59:39;;;;;;;137.00;75.88;;;22.40;99.90;;;;;;4006349;29;20179;-87
2021/07/13 10:01:41;;;;;;;132.32;77.35;;;22.10;99.90;;;;;;4021711;29;20290;-87
2021/07/13 10:03:42;;;;;;;138.40;77.78;;;22.30;99.90;;;;;;4006935;29;20592;-87
2021/07/13 10:05:45;;;;;;;138.70;77.75;;;22.50;99.90;;;;;;4006637;29;20175;-87
2021/07/13 10:07:46;;;;;;;129.50;75.07;;;22.80;99.90;;;;;;4021535;29;20521;-87
2021/07/13 10:09:49;;;;;;;125.43;73.38;;;22.90;99.90;;;;;;4023349;29;20174;-87
2021/07/13 10:11:51;;;;;;;117.25;71.75;;;22.60;99.90;;;;;;4022435;29;20186;-92
2021/07/13 10:13:52;;;;;;;116.25;69.35;;;22.50;99.90;;;;;;4006209;29;20214;-87
2021/07/13 10:15:53;;;;;;;110.55;69.68;;;22.70;99.90;;;;;;4022025;29;20182;-86